createdAt,value
2023-01-16T00:01:44.205Z,97.1
2023-01-16T00:07:34.994Z,96.8
2023-01-16T00:13:28.735Z,96.5
2023-01-16T00:19:19.576Z,95.5
2023-01-16T00:25:11.717Z,96.1
2023-01-16T00:31:02.672Z,95.8
2023-01-16T00:36:54.497Z,95.2
2023-01-16T00:42:45.617Z,95.5
2023-01-16T00:48:37.856Z,95.1
2023-01-16T00:54:32.157Z,96.4
2023-01-16T01:00:23.674Z,97.1
2023-01-16T01:06:15.635Z,99
2023-01-16T01:12:08.179Z,99
2023-01-16T01:19:04.248Z,98.6
2023-01-16T01:24:53.459Z,98
2023-01-16T01:30:44.312Z,97
2023-01-16T01:36:35.026Z,96.7
2023-01-16T01:42:27.786Z,97
2023-01-16T01:48:18.642Z,97.3
2023-01-16T01:54:09.722Z,97
2023-01-16T02:00:03.463Z,97.8
2023-01-16T02:05:54.350Z,98
2023-01-16T02:11:44.753Z,98.2
2023-01-16T02:17:36.180Z,98.3
2023-01-16T02:23:27.106Z,97.6
2023-01-16T02:29:19.260Z,97.3
2023-01-16T02:35:10.014Z,97.9
2023-01-16T02:41:02.146Z,98
2023-01-16T02:46:53.002Z,97.4
2023-01-16T02:52:45.092Z,99.1
2023-01-16T02:58:35.996Z,99.7
2023-01-16T03:04:27.752Z,99.5
2023-01-16T03:10:18.593Z,99.2
2023-01-16T03:16:09.373Z,99.3
2023-01-16T03:22:00.610Z,99.1
2023-01-16T03:27:52.289Z,99.6
2023-01-16T03:33:43.303Z,98.9
2023-01-16T03:39:33.099Z,98.8
2023-01-16T03:45:23.960Z,98
2023-01-16T03:51:14.974Z,98
2023-01-16T03:57:06.390Z,98.1
2023-01-16T04:02:57.440Z,97.9
2023-01-16T04:08:48.820Z,97.3
2023-01-16T04:14:40.862Z,96.5
2023-01-16T04:20:31.595Z,96.4
2023-01-16T04:26:22.663Z,96.1
2023-01-16T04:32:15.268Z,96.1
2023-01-16T04:38:04.175Z,95.7
2023-01-16T04:43:54.263Z,95.9
2023-01-16T04:49:45.472Z,96.6
2023-01-16T04:55:36.640Z,97.1
2023-01-16T05:01:29.064Z,97.5
2023-01-16T05:07:20.337Z,97.9
2023-01-16T05:13:11.297Z,98.3
2023-01-16T05:19:03.960Z,98
2023-01-16T05:24:54.612Z,98
2023-01-16T05:30:48.190Z,98.6
2023-01-16T05:36:40.634Z,98.6
2023-01-16T05:42:31.809Z,98.9
2023-01-16T05:48:25.801Z,99.1
2023-01-16T05:54:20.456Z,99.1
2023-01-16T06:00:11.347Z,98.5
2023-01-16T06:06:03.500Z,98.2
2023-01-16T06:11:55.724Z,97.8
2023-01-16T06:17:48.540Z,97.1
2023-01-16T06:23:40.708Z,97.1
2023-01-16T06:29:33.367Z,96.5
2023-01-16T06:35:26.440Z,96.2
2023-01-16T06:41:16.913Z,95.9
2023-01-16T06:47:06.965Z,95.3
2023-01-16T06:52:57.983Z,94.5
2023-01-16T06:58:48.621Z,94.2
2023-01-16T07:04:39.504Z,93.7
2023-01-16T07:10:30.965Z,92.8
2023-01-16T07:16:21.973Z,92.2
2023-01-16T07:22:13.313Z,91.6
2023-01-16T07:28:04.568Z,90.7
2023-01-16T07:33:55.803Z,91.1
2023-01-16T07:39:46.800Z,91.1
2023-01-16T07:45:40.768Z,92.7
2023-01-16T07:51:32.593Z,93.9
2023-01-16T07:57:24.795Z,96
2023-01-16T08:03:16.136Z,98.1
2023-01-16T08:09:07.148Z,99.1
2023-01-16T08:14:59.791Z,100
2023-01-16T08:20:50.478Z,100
2023-01-16T08:26:40.846Z,100
2023-01-16T08:32:32.009Z,100
2023-01-16T08:38:23.109Z,100
2023-01-16T08:44:15.157Z,100
2023-01-16T08:50:06.982Z,100
2023-01-16T08:55:57.709Z,100
2023-01-16T09:01:48.387Z,100
2023-01-16T09:07:39.671Z,100
2023-01-16T09:13:31.266Z,100
2023-01-16T09:19:23.985Z,100
2023-01-16T09:25:15.091Z,100
2023-01-16T09:31:05.738Z,100
2023-01-16T09:36:57.223Z,100
2023-01-16T09:42:49.207Z,100
2023-01-16T09:48:40.261Z,100
2023-01-16T09:54:32.898Z,100
2023-01-16T10:00:23.607Z,100
2023-01-16T10:06:13.907Z,100
2023-01-16T10:12:07.612Z,100
2023-01-16T10:17:58.295Z,100
2023-01-16T10:23:49.537Z,100
2023-01-16T10:29:40.392Z,100
2023-01-16T10:35:31.593Z,100
2023-01-16T10:41:21.891Z,100
2023-01-16T10:47:13.016Z,100
2023-01-16T10:53:03.766Z,100
2023-01-16T10:58:54.793Z,100
2023-01-16T11:04:46.383Z,100
2023-01-16T11:10:37.596Z,100
2023-01-16T11:16:30.209Z,100
2023-01-16T11:22:21.459Z,100
2023-01-16T11:28:12.731Z,100
2023-01-16T11:34:04.275Z,100
2023-01-16T11:39:54.672Z,100
2023-01-16T11:45:45.066Z,100
2023-01-16T11:51:36.355Z,100
2023-01-16T11:57:27.821Z,100
2023-01-16T12:03:18.172Z,100
2023-01-16T12:09:09.967Z,100
2023-01-16T12:15:00.404Z,100
2023-01-16T12:20:50.927Z,100
2023-01-16T12:26:41.482Z,100
2023-01-16T12:32:31.548Z,100
2023-01-16T12:38:22.722Z,100
2023-01-16T12:44:13.906Z,100
2023-01-16T12:50:04.238Z,100
2023-01-16T12:56:08.524Z,100
2023-01-16T13:01:58.260Z,100
2023-01-16T13:07:51.040Z,100
2023-01-16T13:13:50.228Z,100
2023-01-16T13:19:42.298Z,100
2023-01-16T13:25:32.270Z,100
2023-01-16T13:31:22.352Z,100
2023-01-16T13:37:14.651Z,100
2023-01-16T13:43:05.518Z,100
2023-01-16T13:48:55.712Z,100
2023-01-16T13:54:47.688Z,100
2023-01-16T14:00:38.204Z,100
2023-01-16T14:06:29.234Z,100
2023-01-16T14:12:19.920Z,100
2023-01-16T14:18:10.746Z,100
2023-01-16T14:24:01.481Z,100
2023-01-16T14:29:51.676Z,100
2023-01-16T14:35:43.773Z,100
2023-01-16T14:41:34.185Z,100
2023-01-16T14:47:25.144Z,100
2023-01-16T14:53:15.825Z,100
2023-01-16T14:59:06.162Z,100
2023-01-16T15:04:56.953Z,100
2023-01-16T15:10:51.251Z,100
2023-01-16T15:16:41.557Z,100
2023-01-16T15:22:33.354Z,100
2023-01-16T15:28:23.922Z,100
2023-01-16T15:34:13.930Z,100
2023-01-16T15:40:04.086Z,100
2023-01-16T15:45:54.584Z,100
2023-01-16T15:51:43.140Z,100
2023-01-16T15:57:34.774Z,100
2023-01-16T16:03:25.634Z,100
2023-01-16T16:09:15.882Z,100
2023-01-16T16:15:06.981Z,100
2023-01-16T16:20:56.960Z,100
2023-01-16T16:26:49.018Z,100
2023-01-16T16:32:42.223Z,100
2023-01-16T16:38:35.756Z,100
2023-01-16T16:44:26.392Z,100
2023-01-16T16:50:18.104Z,100
2023-01-16T16:56:09.268Z,100
2023-01-16T17:02:00.372Z,100
2023-01-16T17:07:49.942Z,100
2023-01-16T17:13:41.176Z,100
2023-01-16T17:19:31.787Z,100
2023-01-16T17:25:22.225Z,100
2023-01-16T17:31:12.368Z,100
2023-01-16T17:37:03.117Z,100
2023-01-16T17:42:52.916Z,100
2023-01-16T17:48:43.705Z,100
2023-01-16T17:54:34.196Z,100
2023-01-16T18:00:24.861Z,100
2023-01-16T18:06:16.043Z,100
2023-01-16T18:12:08.395Z,100
2023-01-16T18:17:58.609Z,100
2023-01-16T18:23:49.592Z,100
2023-01-16T18:29:40.986Z,100
2023-01-16T18:35:31.588Z,100
2023-01-16T18:41:21.858Z,100
2023-01-16T18:47:12.781Z,100
2023-01-16T18:53:05.484Z,100
2023-01-16T18:58:56.964Z,100
2023-01-16T19:04:49.023Z,100
2023-01-16T19:10:39.648Z,100
2023-01-16T19:16:29.466Z,99.1
2023-01-16T19:22:20.479Z,98.9
2023-01-16T19:28:11.376Z,97.8
2023-01-16T19:34:01.315Z,97.3
2023-01-16T19:39:51.165Z,97.4
2023-01-16T19:45:41.317Z,98.6
2023-01-16T19:51:33.101Z,100
2023-01-16T19:57:24.111Z,99.9
2023-01-16T20:03:14.383Z,100
2023-01-16T20:09:04.823Z,100
2023-01-16T20:14:55.450Z,100
2023-01-16T20:20:46.202Z,100
2023-01-16T20:26:36.916Z,100
2023-01-16T20:32:27.502Z,100
2023-01-16T20:38:18.056Z,100
2023-01-16T20:44:08.182Z,100
2023-01-16T20:49:59.120Z,100
2023-01-16T20:55:50.152Z,100
2023-01-16T21:01:41.085Z,100
2023-01-16T21:07:31.580Z,100
2023-01-16T21:13:22.089Z,100
2023-01-16T21:19:12.875Z,100
2023-01-16T21:25:04.635Z,100
2023-01-16T21:30:55.603Z,100
2023-01-16T21:36:47.429Z,100
2023-01-16T21:42:38.570Z,100
2023-01-16T21:48:29.356Z,99.7
2023-01-16T21:54:19.702Z,98.9
2023-01-16T22:00:09.774Z,98.1
2023-01-16T22:06:00.186Z,97.4
2023-01-16T22:11:50.719Z,97.6
2023-01-16T22:17:41.014Z,97.1
2023-01-16T22:23:31.410Z,97.5
2023-01-16T22:29:22.183Z,96.2
2023-01-16T22:35:11.526Z,96.1
2023-01-16T22:41:02.077Z,94.9
2023-01-16T22:46:53.158Z,95.7
2023-01-16T22:52:45.009Z,94.3
2023-01-16T22:58:36.189Z,93.9
2023-01-16T23:04:27.222Z,93.4
2023-01-16T23:10:19.497Z,92.8
2023-01-16T23:16:12.083Z,92
2023-01-16T23:22:02.570Z,92
2023-01-16T23:27:54.788Z,91.8
2023-01-16T23:33:46.014Z,91.8
2023-01-16T23:39:39.357Z,92.5
2023-01-16T23:45:30.163Z,95.9
2023-01-16T23:51:20.909Z,97.7
2023-01-16T23:57:14.622Z,98.9
